Terminal Aerodrome Forecast
Issued by NWS

Current Version | Previous Version | Text Only | Print | Product List | Glossary On
Versions: 1 2 3 4 5 6 7 8 9 10 11 12 13 14 15 16 17 18 19 20 21 22 23 24 25 26 27
000
FTUS45 KLKN 221720
TAFWMC
TAF
KWMC 221720Z 2218/2318 VRB05KT P6SM VCTS SCT080CB
     FM222000 31008KT P6SM VCTS BKN070CB
      TEMPO 2221/2301 VRB15G30KT 5SM -TSRA BKN060CB BKN090
     FM230200 29007KT P6SM VCSH OVC070
      TEMPO 2302/2306 -SHRA BKN050=

USA.gov is the U.S. government's official web portal to all federal, state and local government web resources and services.